sensor_id;sensor_type;location;lat;lon;timestamp;P1;durP1;ratioP1;P2;durP2;ratioP2
52210;SDS011;38179;52.756;6.906;2023-02-15T00:00:13;35.10;;;27.23;;
52210;SDS011;38179;52.756;6.906;2023-02-15T00:02:39;33.53;;;25.65;;
52210;SDS011;38179;52.756;6.906;2023-02-15T00:05:05;35.30;;;28.10;;
52210;SDS011;38179;52.756;6.906;2023-02-15T00:07:31;35.92;;;26.20;;
52210;SDS011;38179;52.756;6.906;2023-02-15T00:09:57;39.60;;;29.70;;
52210;SDS011;38179;52.756;6.906;2023-02-15T00:12:23;45.10;;;31.02;;
52210;SDS011;38179;52.756;6.906;2023-02-15T00:14:49;39.45;;;29.40;;
52210;SDS011;38179;52.756;6.906;2023-02-15T00:17:15;41.63;;;29.23;;
52210;SDS011;38179;52.756;6.906;2023-02-15T00:19:41;39.58;;;28.42;;
52210;SDS011;38179;52.756;6.906;2023-02-15T00:22:07;39.45;;;27.85;;
52210;SDS011;38179;52.756;6.906;2023-02-15T00:24:33;38.25;;;27.63;;
52210;SDS011;38179;52.756;6.906;2023-02-15T00:26:59;29.08;;;23.88;;
52210;SDS011;38179;52.756;6.906;2023-02-15T00:29:24;30.05;;;24.65;;
52210;SDS011;38179;52.756;6.906;2023-02-15T00:31:50;31.95;;;25.23;;
52210;SDS011;38179;52.756;6.906;2023-02-15T00:34:18;31.27;;;24.27;;
52210;SDS011;38179;52.756;6.906;2023-02-15T00:36:46;31.25;;;24.85;;
52210;SDS011;38179;52.756;6.906;2023-02-15T00:39:12;31.95;;;24.60;;
52210;SDS011;38179;52.756;6.906;2023-02-15T00:41:39;35.72;;;26.48;;
52210;SDS011;38179;52.756;6.906;2023-02-15T00:44:05;35.17;;;26.00;;
52210;SDS011;38179;52.756;6.906;2023-02-15T00:46:32;30.80;;;23.42;;
52210;SDS011;38179;52.756;6.906;2023-02-15T00:48:58;32.67;;;25.05;;
52210;SDS011;38179;52.756;6.906;2023-02-15T00:51:25;35.67;;;26.65;;
52210;SDS011;38179;52.756;6.906;2023-02-15T00:53:54;36.20;;;25.38;;
52210;SDS011;38179;52.756;6.906;2023-02-15T00:56:20;38.42;;;27.85;;
52210;SDS011;38179;52.756;6.906;2023-02-15T00:58:46;37.08;;;25.55;;
52210;SDS011;38179;52.756;6.906;2023-02-15T01:01:13;30.27;;;24.38;;
52210;SDS011;38179;52.756;6.906;2023-02-15T01:03:44;32.47;;;24.52;;
52210;SDS011;38179;52.756;6.906;2023-02-15T01:06:14;35.72;;;25.67;;
52210;SDS011;38179;52.756;6.906;2023-02-15T01:08:41;40.90;;;29.27;;
52210;SDS011;38179;52.756;6.906;2023-02-15T01:11:11;38.95;;;28.45;;
52210;SDS011;38179;52.756;6.906;2023-02-15T01:13:40;44.65;;;30.60;;
52210;SDS011;38179;52.756;6.906;2023-02-15T01:16:06;43.53;;;29.77;;
52210;SDS011;38179;52.756;6.906;2023-02-15T01:18:33;40.88;;;28.48;;
52210;SDS011;38179;52.756;6.906;2023-02-15T01:21:00;41.85;;;28.08;;
52210;SDS011;38179;52.756;6.906;2023-02-15T01:23:34;42.30;;;29.45;;
52210;SDS011;38179;52.756;6.906;2023-02-15T01:26:03;40.80;;;29.42;;
52210;SDS011;38179;52.756;6.906;2023-02-15T01:28:29;41.47;;;29.02;;
52210;SDS011;38179;52.756;6.906;2023-02-15T01:30:54;45.28;;;31.85;;
52210;SDS011;38179;52.756;6.906;2023-02-15T01:33:20;41.08;;;29.20;;
52210;SDS011;38179;52.756;6.906;2023-02-15T01:35:46;37.55;;;27.85;;
52210;SDS011;38179;52.756;6.906;2023-02-15T01:38:15;34.47;;;26.70;;
52210;SDS011;38179;52.756;6.906;2023-02-15T01:40:41;39.58;;;28.00;;
52210;SDS011;38179;52.756;6.906;2023-02-15T01:43:10;39.22;;;29.75;;
52210;SDS011;38179;52.756;6.906;2023-02-15T01:45:40;38.15;;;29.30;;
52210;SDS011;38179;52.756;6.906;2023-02-15T01:48:24;39.45;;;29.30;;
52210;SDS011;38179;52.756;6.906;2023-02-15T01:50:54;34.22;;;25.60;;
52210;SDS011;38179;52.756;6.906;2023-02-15T01:58:21;35.08;;;24.98;;
52210;SDS011;38179;52.756;6.906;2023-02-15T02:00:47;46.47;;;25.85;;
52210;SDS011;38179;52.756;6.906;2023-02-15T02:03:13;79.00;;;27.33;;
52210;SDS011;38179;52.756;6.906;2023-02-15T02:05:40;90.97;;;26.80;;
52210;SDS011;38179;52.756;6.906;2023-02-15T02:08:07;74.93;;;27.73;;
52210;SDS011;38179;52.756;6.906;2023-02-15T02:13:03;32.47;;;24.88;;
52210;SDS011;38179;52.756;6.906;2023-02-15T02:18:30;45.30;;;26.73;;
52210;SDS011;38179;52.756;6.906;2023-02-15T02:27:05;45.33;;;28.25;;
52210;SDS011;38179;52.756;6.906;2023-02-15T02:35:38;97.88;;;28.38;;
52210;SDS011;38179;52.756;6.906;2023-02-15T02:41:12;157.00;;;29.33;;
52210;SDS011;38179;52.756;6.906;2023-02-15T02:43:51;100.85;;;28.00;;
52210;SDS011;38179;52.756;6.906;2023-02-15T02:46:26;35.25;;;24.67;;
52210;SDS011;38179;52.756;6.906;2023-02-15T02:48:57;114.90;;;27.52;;
52210;SDS011;38179;52.756;6.906;2023-02-15T02:51:23;43.63;;;23.13;;
52210;SDS011;38179;52.756;6.906;2023-02-15T02:53:50;35.67;;;22.88;;
52210;SDS011;38179;52.756;6.906;2023-02-15T02:59:24;23.10;;;20.52;;
52210;SDS011;38179;52.756;6.906;2023-02-15T03:04:38;22.63;;;19.70;;
52210;SDS011;38179;52.756;6.906;2023-02-15T03:07:08;22.20;;;19.83;;
52210;SDS011;38179;52.756;6.906;2023-02-15T03:09:45;22.77;;;20.33;;
52210;SDS011;38179;52.756;6.906;2023-02-15T03:12:17;23.63;;;20.53;;
52210;SDS011;38179;52.756;6.906;2023-02-15T03:14:50;23.63;;;20.13;;
52210;SDS011;38179;52.756;6.906;2023-02-15T03:17:19;23.55;;;20.23;;
52210;SDS011;38179;52.756;6.906;2023-02-15T03:19:48;27.60;;;21.20;;
52210;SDS011;38179;52.756;6.906;2023-02-15T03:22:21;23.52;;;21.05;;
52210;SDS011;38179;52.756;6.906;2023-02-15T03:25:02;30.27;;;20.65;;
52210;SDS011;38179;52.756;6.906;2023-02-15T03:27:49;40.05;;;22.23;;
52210;SDS011;38179;52.756;6.906;2023-02-15T03:30:25;102.97;;;24.50;;
52210;SDS011;38179;52.756;6.906;2023-02-15T03:32:54;81.35;;;25.48;;
52210;SDS011;38179;52.756;6.906;2023-02-15T03:35:25;78.63;;;24.63;;
52210;SDS011;38179;52.756;6.906;2023-02-15T03:37:58;41.55;;;22.70;;
52210;SDS011;38179;52.756;6.906;2023-02-15T03:40:30;25.27;;;21.90;;
52210;SDS011;38179;52.756;6.906;2023-02-15T03:43:21;29.80;;;21.58;;
52210;SDS011;38179;52.756;6.906;2023-02-15T03:45:51;25.55;;;21.27;;
52210;SDS011;38179;52.756;6.906;2023-02-15T03:48:24;36.60;;;21.48;;
52210;SDS011;38179;52.756;6.906;2023-02-15T03:51:00;51.28;;;23.02;;
52210;SDS011;38179;52.756;6.906;2023-02-15T03:53:52;27.60;;;21.48;;
52210;SDS011;38179;52.756;6.906;2023-02-15T03:56:20;44.63;;;22.10;;
52210;SDS011;38179;52.756;6.906;2023-02-15T03:58:47;36.40;;;20.10;;
52210;SDS011;38179;52.756;6.906;2023-02-15T04:01:38;84.60;;;22.25;;
52210;SDS011;38179;52.756;6.906;2023-02-15T04:04:31;70.97;;;22.10;;
52210;SDS011;38179;52.756;6.906;2023-02-15T04:07:02;24.23;;;20.65;;
52210;SDS011;38179;52.756;6.906;2023-02-15T04:09:30;67.75;;;24.05;;
52210;SDS011;38179;52.756;6.906;2023-02-15T04:12:14;44.55;;;24.67;;
52210;SDS011;38179;52.756;6.906;2023-02-15T04:14:40;33.80;;;23.73;;
52210;SDS011;38179;52.756;6.906;2023-02-15T04:17:25;30.17;;;23.20;;
52210;SDS011;38179;52.756;6.906;2023-02-15T04:19:51;28.05;;;23.08;;
52210;SDS011;38179;52.756;6.906;2023-02-15T04:22:35;34.30;;;22.55;;
52210;SDS011;38179;52.756;6.906;2023-02-15T04:25:19;63.58;;;23.67;;
52210;SDS011;38179;52.756;6.906;2023-02-15T04:27:47;108.57;;;27.63;;
52210;SDS011;38179;52.756;6.906;2023-02-15T04:30:19;84.13;;;26.50;;
52210;SDS011;38179;52.756;6.906;2023-02-15T04:32:47;41.08;;;24.52;;
52210;SDS011;38179;52.756;6.906;2023-02-15T04:35:13;40.35;;;23.23;;
52210;SDS011;38179;52.756;6.906;2023-02-15T04:37:43;43.13;;;22.63;;
52210;SDS011;38179;52.756;6.906;2023-02-15T04:40:10;26.02;;;21.10;;
52210;SDS011;38179;52.756;6.906;2023-02-15T04:42:40;28.63;;;23.23;;
52210;SDS011;38179;52.756;6.906;2023-02-15T04:45:06;30.50;;;22.48;;
52210;SDS011;38179;52.756;6.906;2023-02-15T04:47:36;46.00;;;23.90;;
52210;SDS011;38179;52.756;6.906;2023-02-15T04:50:01;57.47;;;25.10;;
52210;SDS011;38179;52.756;6.906;2023-02-15T04:52:28;36.00;;;24.80;;
52210;SDS011;38179;52.756;6.906;2023-02-15T04:54:53;30.67;;;23.17;;
52210;SDS011;38179;52.756;6.906;2023-02-15T04:57:19;31.90;;;24.02;;
52210;SDS011;38179;52.756;6.906;2023-02-15T04:59:45;29.77;;;23.40;;
52210;SDS011;38179;52.756;6.906;2023-02-15T05:02:11;30.50;;;23.10;;
52210;SDS011;38179;52.756;6.906;2023-02-15T05:04:37;29.60;;;23.40;;
52210;SDS011;38179;52.756;6.906;2023-02-15T05:07:03;33.00;;;24.33;;
52210;SDS011;38179;52.756;6.906;2023-02-15T05:09:29;36.42;;;26.48;;
52210;SDS011;38179;52.756;6.906;2023-02-15T05:11:55;43.08;;;25.92;;
52210;SDS011;38179;52.756;6.906;2023-02-15T05:14:21;43.53;;;27.35;;
52210;SDS011;38179;52.756;6.906;2023-02-15T05:16:47;42.58;;;27.45;;
52210;SDS011;38179;52.756;6.906;2023-02-15T05:19:13;37.03;;;28.05;;
52210;SDS011;38179;52.756;6.906;2023-02-15T05:21:38;37.10;;;26.05;;
52210;SDS011;38179;52.756;6.906;2023-02-15T05:24:04;36.47;;;26.00;;
52210;SDS011;38179;52.756;6.906;2023-02-15T05:26:50;37.17;;;26.27;;
52210;SDS011;38179;52.756;6.906;2023-02-15T05:29:34;42.15;;;30.25;;
52210;SDS011;38179;52.756;6.906;2023-02-15T05:32:00;46.65;;;30.20;;
52210;SDS011;38179;52.756;6.906;2023-02-15T05:34:27;50.53;;;28.45;;
52210;SDS011;38179;52.756;6.906;2023-02-15T05:36:53;88.40;;;30.67;;
52210;SDS011;38179;52.756;6.906;2023-02-15T05:39:19;90.90;;;27.90;;
52210;SDS011;38179;52.756;6.906;2023-02-15T05:41:45;29.48;;;22.95;;
52210;SDS011;38179;52.756;6.906;2023-02-15T05:44:10;30.55;;;23.58;;
52210;SDS011;38179;52.756;6.906;2023-02-15T05:46:36;30.27;;;24.17;;
52210;SDS011;38179;52.756;6.906;2023-02-15T05:49:02;33.33;;;24.30;;
52210;SDS011;38179;52.756;6.906;2023-02-15T05:51:28;37.10;;;27.00;;
52210;SDS011;38179;52.756;6.906;2023-02-15T05:53:54;34.35;;;25.77;;
52210;SDS011;38179;52.756;6.906;2023-02-15T05:56:20;33.55;;;24.67;;
52210;SDS011;38179;52.756;6.906;2023-02-15T05:58:45;33.40;;;24.60;;
52210;SDS011;38179;52.756;6.906;2023-02-15T06:01:15;34.42;;;26.00;;
52210;SDS011;38179;52.756;6.906;2023-02-15T06:03:43;35.03;;;24.50;;
52210;SDS011;38179;52.756;6.906;2023-02-15T06:06:10;32.55;;;25.20;;
52210;SDS011;38179;52.756;6.906;2023-02-15T06:08:36;33.08;;;24.70;;
52210;SDS011;38179;52.756;6.906;2023-02-15T06:11:06;33.40;;;23.88;;
52210;SDS011;38179;52.756;6.906;2023-02-15T06:13:32;32.90;;;24.50;;
52210;SDS011;38179;52.756;6.906;2023-02-15T06:15:59;33.83;;;24.73;;
52210;SDS011;38179;52.756;6.906;2023-02-15T06:18:25;28.98;;;22.90;;
52210;SDS011;38179;52.756;6.906;2023-02-15T06:20:51;34.17;;;24.98;;
52210;SDS011;38179;52.756;6.906;2023-02-15T06:23:17;33.78;;;24.48;;
52210;SDS011;38179;52.756;6.906;2023-02-15T06:25:44;32.75;;;24.98;;
52210;SDS011;38179;52.756;6.906;2023-02-15T06:28:11;32.90;;;24.30;;
52210;SDS011;38179;52.756;6.906;2023-02-15T06:30:37;33.65;;;24.13;;
52210;SDS011;38179;52.756;6.906;2023-02-15T06:33:03;34.90;;;24.63;;
52210;SDS011;38179;52.756;6.906;2023-02-15T06:35:29;34.45;;;25.20;;
52210;SDS011;38179;52.756;6.906;2023-02-15T06:37:55;40.08;;;26.27;;
52210;SDS011;38179;52.756;6.906;2023-02-15T06:40:20;39.60;;;26.10;;
52210;SDS011;38179;52.756;6.906;2023-02-15T06:42:46;39.15;;;26.27;;
52210;SDS011;38179;52.756;6.906;2023-02-15T06:45:12;40.97;;;29.05;;
52210;SDS011;38179;52.756;6.906;2023-02-15T06:47:38;39.50;;;26.77;;
52210;SDS011;38179;52.756;6.906;2023-02-15T06:50:05;36.83;;;26.20;;
52210;SDS011;38179;52.756;6.906;2023-02-15T06:52:32;43.80;;;28.05;;
52210;SDS011;38179;52.756;6.906;2023-02-15T06:54:58;46.25;;;31.70;;
52210;SDS011;38179;52.756;6.906;2023-02-15T06:57:24;38.60;;;27.20;;
52210;SDS011;38179;52.756;6.906;2023-02-15T06:59:50;42.00;;;28.05;;
52210;SDS011;38179;52.756;6.906;2023-02-15T07:02:15;41.17;;;26.55;;
52210;SDS011;38179;52.756;6.906;2023-02-15T07:04:41;39.05;;;26.98;;
52210;SDS011;38179;52.756;6.906;2023-02-15T07:07:08;41.90;;;27.98;;
52210;SDS011;38179;52.756;6.906;2023-02-15T07:09:38;50.38;;;29.10;;
52210;SDS011;38179;52.756;6.906;2023-02-15T07:12:04;45.28;;;29.20;;
52210;SDS011;38179;52.756;6.906;2023-02-15T07:14:49;61.95;;;30.77;;
52210;SDS011;38179;52.756;6.906;2023-02-15T07:17:15;72.80;;;32.35;;
52210;SDS011;38179;52.756;6.906;2023-02-15T07:19:40;50.08;;;32.08;;
52210;SDS011;38179;52.756;6.906;2023-02-15T07:22:06;59.47;;;30.98;;
52210;SDS011;38179;52.756;6.906;2023-02-15T07:24:32;45.10;;;29.63;;
52210;SDS011;38179;52.756;6.906;2023-02-15T07:26:58;51.10;;;31.55;;
52210;SDS011;38179;52.756;6.906;2023-02-15T07:29:24;53.10;;;33.50;;
52210;SDS011;38179;52.756;6.906;2023-02-15T07:31:50;46.42;;;30.15;;
52210;SDS011;38179;52.756;6.906;2023-02-15T07:34:16;44.90;;;30.15;;
52210;SDS011;38179;52.756;6.906;2023-02-15T07:36:44;53.30;;;33.05;;
52210;SDS011;38179;52.756;6.906;2023-02-15T07:39:13;54.67;;;32.60;;
52210;SDS011;38179;52.756;6.906;2023-02-15T07:41:39;50.38;;;32.15;;
52210;SDS011;38179;52.756;6.906;2023-02-15T07:44:05;47.80;;;30.75;;
52210;SDS011;38179;52.756;6.906;2023-02-15T07:46:36;53.35;;;32.22;;
52210;SDS011;38179;52.756;6.906;2023-02-15T07:49:01;47.80;;;32.13;;
52210;SDS011;38179;52.756;6.906;2023-02-15T07:51:28;45.67;;;31.17;;
52210;SDS011;38179;52.756;6.906;2023-02-15T07:53:54;49.92;;;33.10;;
52210;SDS011;38179;52.756;6.906;2023-02-15T07:56:20;46.83;;;31.13;;
52210;SDS011;38179;52.756;6.906;2023-02-15T07:58:46;47.38;;;30.63;;
52210;SDS011;38179;52.756;6.906;2023-02-15T08:01:22;49.22;;;32.75;;
52210;SDS011;38179;52.756;6.906;2023-02-15T08:03:50;49.33;;;31.65;;
52210;SDS011;38179;52.756;6.906;2023-02-15T08:06:16;46.03;;;31.95;;
52210;SDS011;38179;52.756;6.906;2023-02-15T08:08:42;53.53;;;34.35;;
52210;SDS011;38179;52.756;6.906;2023-02-15T08:14:01;49.38;;;32.10;;
52210;SDS011;38179;52.756;6.906;2023-02-15T08:16:38;50.80;;;32.95;;
52210;SDS011;38179;52.756;6.906;2023-02-15T08:21:41;49.55;;;32.92;;
52210;SDS011;38179;52.756;6.906;2023-02-15T08:24:16;56.10;;;34.42;;
52210;SDS011;38179;52.756;6.906;2023-02-15T08:26:44;53.45;;;35.40;;
52210;SDS011;38179;52.756;6.906;2023-02-15T08:29:12;58.50;;;36.03;;
52210;SDS011;38179;52.756;6.906;2023-02-15T08:31:43;56.35;;;36.33;;
52210;SDS011;38179;52.756;6.906;2023-02-15T08:36:38;55.33;;;36.65;;
52210;SDS011;38179;52.756;6.906;2023-02-15T08:39:07;59.53;;;38.58;;
52210;SDS011;38179;52.756;6.906;2023-02-15T08:41:34;57.88;;;36.50;;
52210;SDS011;38179;52.756;6.906;2023-02-15T08:44:02;64.28;;;38.38;;
52210;SDS011;38179;52.756;6.906;2023-02-15T08:46:31;63.00;;;39.75;;
52210;SDS011;38179;52.756;6.906;2023-02-15T08:48:59;56.15;;;36.85;;
52210;SDS011;38179;52.756;6.906;2023-02-15T08:51:26;62.35;;;38.92;;
52210;SDS011;38179;52.756;6.906;2023-02-15T08:53:55;67.35;;;40.25;;
52210;SDS011;38179;52.756;6.906;2023-02-15T08:56:26;62.83;;;37.47;;
52210;SDS011;38179;52.756;6.906;2023-02-15T08:58:54;64.45;;;38.75;;
52210;SDS011;38179;52.756;6.906;2023-02-15T09:01:22;66.65;;;38.60;;
52210;SDS011;38179;52.756;6.906;2023-02-15T09:04:03;67.90;;;40.05;;
52210;SDS011;38179;52.756;6.906;2023-02-15T09:06:30;62.08;;;39.58;;
52210;SDS011;38179;52.756;6.906;2023-02-15T09:08:56;63.80;;;38.38;;
52210;SDS011;38179;52.756;6.906;2023-02-15T09:11:29;61.90;;;38.47;;
52210;SDS011;38179;52.756;6.906;2023-02-15T09:14:01;63.38;;;39.30;;
52210;SDS011;38179;52.756;6.906;2023-02-15T09:16:34;61.60;;;37.53;;
52210;SDS011;38179;52.756;6.906;2023-02-15T09:19:02;57.45;;;38.38;;
52210;SDS011;38179;52.756;6.906;2023-02-15T09:21:29;62.70;;;39.55;;
52210;SDS011;38179;52.756;6.906;2023-02-15T09:23:57;60.78;;;38.35;;
52210;SDS011;38179;52.756;6.906;2023-02-15T09:26:25;61.00;;;38.03;;
52210;SDS011;38179;52.756;6.906;2023-02-15T09:28:54;64.80;;;38.50;;
52210;SDS011;38179;52.756;6.906;2023-02-15T09:31:23;57.67;;;37.63;;
52210;SDS011;38179;52.756;6.906;2023-02-15T09:33:53;64.03;;;38.45;;
52210;SDS011;38179;52.756;6.906;2023-02-15T09:38:57;53.10;;;35.75;;
52210;SDS011;38179;52.756;6.906;2023-02-15T09:47:14;56.08;;;35.38;;
52210;SDS011;38179;52.756;6.906;2023-02-15T09:54:55;54.53;;;36.20;;
52210;SDS011;38179;52.756;6.906;2023-02-15T10:03:24;53.67;;;34.42;;
52210;SDS011;38179;52.756;6.906;2023-02-15T10:14:12;50.97;;;34.55;;
52210;SDS011;38179;52.756;6.906;2023-02-15T10:27:49;57.90;;;35.17;;
52210;SDS011;38179;52.756;6.906;2023-02-15T10:30:31;50.67;;;33.83;;
52210;SDS011;38179;52.756;6.906;2023-02-15T10:33:04;49.08;;;33.80;;
52210;SDS011;38179;52.756;6.906;2023-02-15T10:47:00;53.63;;;35.28;;
52210;SDS011;38179;52.756;6.906;2023-02-15T10:55:02;51.17;;;34.83;;
52210;SDS011;38179;52.756;6.906;2023-02-15T11:03:21;51.50;;;34.33;;
52210;SDS011;38179;52.756;6.906;2023-02-15T11:06:08;51.67;;;34.17;;
52210;SDS011;38179;52.756;6.906;2023-02-15T11:08:39;50.30;;;35.35;;
52210;SDS011;38179;52.756;6.906;2023-02-15T11:11:28;55.00;;;36.90;;
52210;SDS011;38179;52.756;6.906;2023-02-15T11:14:14;48.28;;;33.83;;
52210;SDS011;38179;52.756;6.906;2023-02-15T11:16:46;53.40;;;35.97;;
52210;SDS011;38179;52.756;6.906;2023-02-15T11:19:22;51.47;;;34.85;;
52210;SDS011;38179;52.756;6.906;2023-02-15T11:22:04;55.65;;;35.38;;
52210;SDS011;38179;52.756;6.906;2023-02-15T11:24:33;51.40;;;35.10;;
52210;SDS011;38179;52.756;6.906;2023-02-15T11:29:43;51.70;;;35.60;;
52210;SDS011;38179;52.756;6.906;2023-02-15T11:32:14;53.67;;;34.95;;
52210;SDS011;38179;52.756;6.906;2023-02-15T11:37:21;49.75;;;34.75;;
52210;SDS011;38179;52.756;6.906;2023-02-15T11:39:56;51.67;;;34.55;;
52210;SDS011;38179;52.756;6.906;2023-02-15T11:42:23;52.38;;;36.65;;
52210;SDS011;38179;52.756;6.906;2023-02-15T11:47:25;47.35;;;34.95;;
52210;SDS011;38179;52.756;6.906;2023-02-15T11:49:51;49.50;;;36.45;;
52210;SDS011;38179;52.756;6.906;2023-02-15T11:52:17;52.67;;;35.38;;
52210;SDS011;38179;52.756;6.906;2023-02-15T11:54:45;50.60;;;36.15;;
52210;SDS011;38179;52.756;6.906;2023-02-15T11:57:21;49.47;;;35.42;;
52210;SDS011;38179;52.756;6.906;2023-02-15T12:00:05;49.13;;;35.17;;
52210;SDS011;38179;52.756;6.906;2023-02-15T12:08:23;52.47;;;35.28;;
52210;SDS011;38179;52.756;6.906;2023-02-15T12:11:09;54.22;;;33.83;;
52210;SDS011;38179;52.756;6.906;2023-02-15T12:13:54;52.78;;;34.10;;
52210;SDS011;38179;52.756;6.906;2023-02-15T12:16:25;48.13;;;33.00;;
52210;SDS011;38179;52.756;6.906;2023-02-15T12:18:57;49.22;;;33.50;;
52210;SDS011;38179;52.756;6.906;2023-02-15T12:21:29;47.50;;;33.38;;
52210;SDS011;38179;52.756;6.906;2023-02-15T12:24:00;44.17;;;32.05;;
52210;SDS011;38179;52.756;6.906;2023-02-15T12:26:55;44.08;;;32.38;;
52210;SDS011;38179;52.756;6.906;2023-02-15T12:29:27;49.05;;;33.53;;
52210;SDS011;38179;52.756;6.906;2023-02-15T12:31:56;45.03;;;31.00;;
52210;SDS011;38179;52.756;6.906;2023-02-15T12:34:28;45.25;;;32.55;;
52210;SDS011;38179;52.756;6.906;2023-02-15T12:36:58;44.60;;;31.85;;
52210;SDS011;38179;52.756;6.906;2023-02-15T12:39:29;47.28;;;33.35;;
52210;SDS011;38179;52.756;6.906;2023-02-15T12:42:01;51.15;;;32.15;;
52210;SDS011;38179;52.756;6.906;2023-02-15T12:44:39;44.95;;;31.90;;
52210;SDS011;38179;52.756;6.906;2023-02-15T12:47:18;43.75;;;31.92;;
52210;SDS011;38179;52.756;6.906;2023-02-15T12:49:45;47.17;;;32.63;;
52210;SDS011;38179;52.756;6.906;2023-02-15T12:52:48;40.83;;;29.40;;
52210;SDS011;38179;52.756;6.906;2023-02-15T12:55:20;46.22;;;31.88;;
52210;SDS011;38179;52.756;6.906;2023-02-15T12:57:46;42.20;;;29.58;;
52210;SDS011;38179;52.756;6.906;2023-02-15T13:02:46;43.25;;;29.88;;
52210;SDS011;38179;52.756;6.906;2023-02-15T13:07:53;43.72;;;30.15;;
52210;SDS011;38179;52.756;6.906;2023-02-15T13:10:36;40.30;;;28.95;;
52210;SDS011;38179;52.756;6.906;2023-02-15T13:13:14;40.38;;;29.25;;
52210;SDS011;38179;52.756;6.906;2023-02-15T13:15:48;44.05;;;30.50;;
52210;SDS011;38179;52.756;6.906;2023-02-15T13:18:17;39.70;;;29.02;;
52210;SDS011;38179;52.756;6.906;2023-02-15T13:20:48;42.38;;;29.35;;
52210;SDS011;38179;52.756;6.906;2023-02-15T13:23:20;46.75;;;30.42;;
52210;SDS011;38179;52.756;6.906;2023-02-15T13:25:52;42.25;;;29.77;;
52210;SDS011;38179;52.756;6.906;2023-02-15T13:28:25;41.83;;;29.17;;
52210;SDS011;38179;52.756;6.906;2023-02-15T13:31:17;43.90;;;28.38;;
52210;SDS011;38179;52.756;6.906;2023-02-15T13:33:46;41.38;;;29.35;;
52210;SDS011;38179;52.756;6.906;2023-02-15T13:36:30;41.00;;;29.38;;
52210;SDS011;38179;52.756;6.906;2023-02-15T13:42:03;41.17;;;28.48;;
52210;SDS011;38179;52.756;6.906;2023-02-15T13:58:23;38.20;;;28.17;;
52210;SDS011;38179;52.756;6.906;2023-02-15T14:15:11;38.08;;;28.63;;
52210;SDS011;38179;52.756;6.906;2023-02-15T14:21:10;39.70;;;26.85;;
52210;SDS011;38179;52.756;6.906;2023-02-15T14:23:28;38.17;;;27.85;;
52210;SDS011;38179;52.756;6.906;2023-02-15T14:26:19;41.53;;;28.85;;
52210;SDS011;38179;52.756;6.906;2023-02-15T14:37:03;42.88;;;28.45;;
52210;SDS011;38179;52.756;6.906;2023-02-15T14:45:41;41.33;;;27.33;;
52210;SDS011;38179;52.756;6.906;2023-02-15T14:48:20;38.17;;;27.15;;
52210;SDS011;38179;52.756;6.906;2023-02-15T14:50:54;37.38;;;26.50;;
52210;SDS011;38179;52.756;6.906;2023-02-15T14:58:46;38.25;;;27.42;;
52210;SDS011;38179;52.756;6.906;2023-02-15T15:01:33;40.20;;;27.85;;
52210;SDS011;38179;52.756;6.906;2023-02-15T15:04:14;37.17;;;25.67;;
52210;SDS011;38179;52.756;6.906;2023-02-15T15:07:36;42.38;;;27.95;;
52210;SDS011;38179;52.756;6.906;2023-02-15T15:10:00;38.20;;;27.60;;
52210;SDS011;38179;52.756;6.906;2023-02-15T15:14:59;37.80;;;27.38;;
52210;SDS011;38179;52.756;6.906;2023-02-15T15:19:59;39.88;;;28.52;;
52210;SDS011;38179;52.756;6.906;2023-02-15T15:22:28;43.92;;;29.00;;
52210;SDS011;38179;52.756;6.906;2023-02-15T15:41:42;40.10;;;26.95;;
52210;SDS011;38179;52.756;6.906;2023-02-15T15:49:42;42.30;;;28.35;;
52210;SDS011;38179;52.756;6.906;2023-02-15T15:52:12;36.28;;;26.27;;
52210;SDS011;38179;52.756;6.906;2023-02-15T15:54:46;41.22;;;27.48;;
52210;SDS011;38179;52.756;6.906;2023-02-15T16:03:03;40.08;;;27.25;;
52210;SDS011;38179;52.756;6.906;2023-02-15T16:05:38;41.92;;;28.92;;
52210;SDS011;38179;52.756;6.906;2023-02-15T16:08:05;42.20;;;27.58;;
52210;SDS011;38179;52.756;6.906;2023-02-15T16:10:31;37.28;;;27.08;;
52210;SDS011;38179;52.756;6.906;2023-02-15T16:12:59;39.75;;;27.25;;
52210;SDS011;38179;52.756;6.906;2023-02-15T16:15:41;40.10;;;26.90;;
52210;SDS011;38179;52.756;6.906;2023-02-15T16:18:13;43.53;;;28.13;;
52210;SDS011;38179;52.756;6.906;2023-02-15T16:20:42;39.35;;;28.20;;
52210;SDS011;38179;52.756;6.906;2023-02-15T16:28:34;38.45;;;27.23;;
52210;SDS011;38179;52.756;6.906;2023-02-15T16:31:14;42.83;;;26.67;;
52210;SDS011;38179;52.756;6.906;2023-02-15T16:33:41;38.03;;;27.15;;
52210;SDS011;38179;52.756;6.906;2023-02-15T16:36:19;39.65;;;27.38;;
52210;SDS011;38179;52.756;6.906;2023-02-15T16:41:27;42.65;;;28.67;;
52210;SDS011;38179;52.756;6.906;2023-02-15T16:43:56;37.95;;;27.48;;
52210;SDS011;38179;52.756;6.906;2023-02-15T16:46:28;39.05;;;28.10;;
52210;SDS011;38179;52.756;6.906;2023-02-15T16:48:58;43.38;;;29.33;;
52210;SDS011;38179;52.756;6.906;2023-02-15T16:51:29;41.10;;;29.55;;
52210;SDS011;38179;52.756;6.906;2023-02-15T16:54:03;42.80;;;28.20;;
52210;SDS011;38179;52.756;6.906;2023-02-15T16:56:33;43.67;;;28.98;;
52210;SDS011;38179;52.756;6.906;2023-02-15T16:59:00;42.08;;;29.63;;
52210;SDS011;38179;52.756;6.906;2023-02-15T17:01:30;44.97;;;29.25;;
52210;SDS011;38179;52.756;6.906;2023-02-15T17:04:16;43.30;;;29.57;;
52210;SDS011;38179;52.756;6.906;2023-02-15T17:06:58;41.67;;;29.25;;
52210;SDS011;38179;52.756;6.906;2023-02-15T17:09:26;43.40;;;30.30;;
52210;SDS011;38179;52.756;6.906;2023-02-15T17:11:52;39.17;;;29.08;;
52210;SDS011;38179;52.756;6.906;2023-02-15T17:14:21;45.97;;;29.45;;
52210;SDS011;38179;52.756;6.906;2023-02-15T17:16:53;42.63;;;29.13;;
52210;SDS011;38179;52.756;6.906;2023-02-15T17:19:26;46.10;;;30.08;;
52210;SDS011;38179;52.756;6.906;2023-02-15T17:24:28;43.08;;;28.63;;
52210;SDS011;38179;52.756;6.906;2023-02-15T17:27:07;40.92;;;29.83;;
52210;SDS011;38179;52.756;6.906;2023-02-15T17:29:51;43.20;;;30.55;;
52210;SDS011;38179;52.756;6.906;2023-02-15T17:32:24;43.45;;;30.45;;
52210;SDS011;38179;52.756;6.906;2023-02-15T17:37:47;39.80;;;28.27;;
52210;SDS011;38179;52.756;6.906;2023-02-15T17:40:24;41.17;;;29.35;;
52210;SDS011;38179;52.756;6.906;2023-02-15T17:42:52;44.85;;;31.02;;
52210;SDS011;38179;52.756;6.906;2023-02-15T17:45:18;42.10;;;30.98;;
52210;SDS011;38179;52.756;6.906;2023-02-15T17:47:46;42.92;;;30.40;;
52210;SDS011;38179;52.756;6.906;2023-02-15T17:50:20;45.25;;;30.17;;
52210;SDS011;38179;52.756;6.906;2023-02-15T17:52:48;40.75;;;30.00;;
52210;SDS011;38179;52.756;6.906;2023-02-15T17:55:16;44.20;;;30.23;;
52210;SDS011;38179;52.756;6.906;2023-02-15T17:58:03;46.15;;;29.98;;
52210;SDS011;38179;52.756;6.906;2023-02-15T18:00:31;42.78;;;30.95;;
52210;SDS011;38179;52.756;6.906;2023-02-15T18:03:17;44.53;;;29.45;;
52210;SDS011;38179;52.756;6.906;2023-02-15T18:06:01;39.13;;;28.45;;
52210;SDS011;38179;52.756;6.906;2023-02-15T18:08:46;41.42;;;31.42;;
52210;SDS011;38179;52.756;6.906;2023-02-15T18:11:30;44.25;;;30.42;;
52210;SDS011;38179;52.756;6.906;2023-02-15T18:14:06;44.38;;;30.13;;
52210;SDS011;38179;52.756;6.906;2023-02-15T18:16:34;41.70;;;30.42;;
52210;SDS011;38179;52.756;6.906;2023-02-15T18:19:17;42.40;;;30.00;;
52210;SDS011;38179;52.756;6.906;2023-02-15T18:21:46;42.55;;;29.67;;